Time;durP1;ratioP1;P1;durP2;ratioP2;P2;SDS_P1;SDS_P2;PMS_P1;PMS_P2;Temp;Humidity;BMP_temperature;BMP_pressure;BME280_temperature;BME280_humidity;BME280_pressure;Samples;Min_cycle;Max_cycle;Signal;HPM_P1;HPM_P2
2023/02/21 02:16:02;;;;;;;2.27;0.30;;;8.90;99.90;;;;;;5013056;28;20503;-84
2023/02/21 02:18:48;;;;;;;0.70;0.20;;;8.80;99.90;;;;;;5015615;28;20473;-85
2023/02/21 02:21:41;;;;;;;2.60;0.30;;;8.80;99.90;;;;;;4993585;28;20433;-85
2023/02/21 02:24:28;;;;;;;2.80;0.33;;;8.40;99.90;;;;;;5013876;28;20422;-86
2023/02/21 02:27:24;;;;;;;1.33;0.60;;;8.90;99.90;;;;;;5015542;28;20422;-85
2023/02/21 02:30:01;;;;;;;2.47;0.57;;;8.80;99.90;;;;;;5015112;28;20415;-84
2023/02/21 02:32:51;;;;;;;2.60;0.67;;;8.90;99.90;;;;;;5014472;28;20619;-85
2023/02/21 02:35:31;;;;;;;0.90;0.20;;;8.90;99.90;;;;;;5013584;28;20427;-84
2023/02/21 02:38:23;;;;;;;1.43;0.20;;;8.80;99.90;;;;;;5015341;28;20500;-84
2023/02/21 02:41:27;;;;;;;1.67;0.40;;;8.80;99.90;;;;;;5014938;28;20503;-87
2023/02/21 02:43:58;;;;;;;0.97;0.30;;;8.80;99.90;;;;;;4973569;28;20563;-86
2023/02/21 02:46:27;;;;;;;1.87;0.30;;;8.80;99.90;;;;;;4973653;28;20948;-86
2023/02/21 02:49:16;;;;;;;1.27;0.40;;;8.80;99.90;;;;;;4994686;28;20761;-86
2023/02/21 02:51:42;;;;;;;0.43;0.20;;;8.80;99.90;;;;;;5014277;28;20786;-85
2023/02/21 02:54:08;;;;;;;1.00;0.20;;;8.80;99.90;;;;;;5014663;28;20415;-85
2023/02/21 02:56:37;;;;;;;2.93;0.30;;;8.80;99.90;;;;;;5014968;28;20185;-86
2023/02/21 02:59:35;;;;;;;0.93;0.20;;;8.80;99.90;;;;;;5014937;28;20203;-86
2023/02/21 03:02:21;;;;;;;1.30;0.27;;;8.80;99.90;;;;;;5010521;28;20418;-86
2023/02/21 03:05:05;;;;;;;0.60;0.60;;;8.80;99.90;;;;;;5014833;28;20399;-87
2023/02/21 03:07:44;;;;;;;0.50;0.20;;;8.80;99.90;;;;;;5030077;28;20422;-88
2023/02/21 03:10:33;;;;;;;3.60;0.30;;;8.80;99.90;;;;;;5013026;28;20417;-87
2023/02/21 03:13:23;;;;;;;1.47;0.67;;;8.80;99.90;;;;;;5013342;28;20426;-85
2023/02/21 03:15:49;;;;;;;0.97;0.60;;;8.80;99.90;;;;;;5029919;28;20422;-84
2023/02/21 03:18:44;;;;;;;2.87;0.47;;;8.80;99.90;;;;;;5013222;28;20531;-85
2023/02/21 03:21:23;;;;;;;4.23;0.27;;;8.80;99.90;;;;;;5014713;28;20171;-84
2023/02/21 03:23:52;;;;;;;1.50;0.50;;;8.80;99.90;;;;;;5013314;28;20750;-85
2023/02/21 03:26:18;;;;;;;1.30;0.40;;;8.70;99.90;;;;;;5014334;28;20501;-85
2023/02/21 03:28:44;;;;;;;1.80;0.20;;;8.80;99.90;;;;;;5014457;28;20442;-84
2023/02/21 03:31:14;;;;;;;1.27;0.20;;;8.80;99.90;;;;;;5014378;28;20174;-86
2023/02/21 03:33:40;;;;;;;2.10;0.63;;;8.70;99.90;;;;;;5014262;28;20403;-84
2023/02/21 03:36:07;;;;;;;1.50;0.30;;;8.70;99.90;;;;;;5014297;28;20826;-84
2023/02/21 03:38:33;;;;;;;1.13;0.27;;;8.70;99.90;;;;;;5014253;28;20238;-84
2023/02/21 03:40:58;;;;;;;1.57;0.30;;;8.80;99.90;;;;;;5013851;28;20399;-85
2023/02/21 03:43:24;;;;;;;1.43;0.40;;;8.70;99.90;;;;;;5012999;28;20660;-84
2023/02/21 03:45:49;;;;;;;1.00;0.20;;;8.70;99.90;;;;;;5012561;28;20225;-84
2023/02/21 03:48:15;;;;;;;1.33;0.23;;;8.60;99.90;;;;;;5014061;28;20263;-84
2023/02/21 03:50:40;;;;;;;1.17;0.30;;;8.70;99.90;;;;;;5012765;28;20174;-84
2023/02/21 03:53:06;;;;;;;1.43;0.40;;;8.70;99.90;;;;;;5014044;28;20653;-85
2023/02/21 03:55:32;;;;;;;3.17;0.37;;;8.70;99.90;;;;;;5012428;28;20180;-85
2023/02/21 03:57:57;;;;;;;2.70;0.60;;;8.70;99.90;;;;;;5012620;28;20474;-85
2023/02/21 04:00:23;;;;;;;1.43;0.30;;;8.60;99.90;;;;;;5012675;28;20199;-85
2023/02/21 04:02:48;;;;;;;1.13;0.20;;;8.60;99.90;;;;;;5013905;28;20166;-84
2023/02/21 04:05:14;;;;;;;0.80;0.20;;;8.70;99.90;;;;;;5013828;28;20594;-84
2023/02/21 04:07:39;;;;;;;2.87;0.50;;;8.70;99.90;;;;;;5013719;28;20226;-84
2023/02/21 04:10:05;;;;;;;0.90;0.30;;;8.50;99.90;;;;;;5013331;28;20177;-84
2023/02/21 04:12:30;;;;;;;3.20;0.60;;;8.60;99.90;;;;;;5013846;28;20212;-85
2023/02/21 04:14:57;;;;;;;2.20;0.50;;;8.60;99.90;;;;;;5013657;28;20645;-86
2023/02/21 04:17:23;;;;;;;0.90;0.50;;;8.60;99.90;;;;;;5013698;28;20170;-87
2023/02/21 04:19:48;;;;;;;0.77;0.23;;;8.60;99.90;;;;;;5013627;28;20476;-86
2023/02/21 04:22:14;;;;;;;1.80;0.23;;;8.60;99.90;;;;;;5013485;28;20175;-85
2023/02/21 04:24:42;;;;;;;2.27;0.47;;;8.60;99.90;;;;;;5013172;28;20727;-84
2023/02/21 04:27:07;;;;;;;2.43;0.60;;;8.50;99.90;;;;;;5013594;28;20182;-87
2023/02/21 04:29:33;;;;;;;4.97;0.50;;;8.60;99.90;;;;;;5012208;28;20841;-86
2023/02/21 04:31:58;;;;;;;4.60;1.00;;;8.70;99.90;;;;;;5013481;28;20167;-88
2023/02/21 04:34:24;;;;;;;1.60;0.57;;;8.60;99.90;;;;;;5013554;28;20206;-87
2023/02/21 04:36:49;;;;;;;3.70;0.40;;;8.50;99.90;;;;;;5013523;28;20649;-87
2023/02/21 04:39:15;;;;;;;3.70;0.40;;;8.60;99.90;;;;;;5012948;28;20207;-87
2023/02/21 04:41:41;;;;;;;1.43;0.53;;;8.50;99.90;;;;;;5012092;28;20774;-85
2023/02/21 04:44:07;;;;;;;1.00;0.37;;;8.50;99.90;;;;;;5012692;28;20445;-85
2023/02/21 04:46:33;;;;;;;1.03;0.40;;;8.50;99.90;;;;;;5013029;28;20575;-86
2023/02/21 04:48:59;;;;;;;1.07;0.40;;;8.50;99.90;;;;;;5013280;28;20255;-85
2023/02/21 04:51:25;;;;;;;4.03;0.70;;;8.50;99.90;;;;;;5011915;28;21065;-85
2023/02/21 04:53:58;;;;;;;1.57;0.80;;;8.40;99.90;;;;;;5012807;28;20416;-85
2023/02/21 04:56:26;;;;;;;1.87;0.40;;;8.50;99.90;;;;;;5013233;28;21040;-85
2023/02/21 04:58:51;;;;;;;3.13;0.77;;;8.40;99.90;;;;;;5013184;28;20491;-86
2023/02/21 05:01:18;;;;;;;2.20;0.40;;;8.40;99.90;;;;;;5011904;28;20418;-85
2023/02/21 05:03:44;;;;;;;1.40;0.53;;;8.40;99.90;;;;;;5013266;28;20175;-86
2023/02/21 05:06:10;;;;;;;2.97;0.57;;;8.40;99.90;;;;;;5013129;28;20406;-87
2023/02/21 05:08:35;;;;;;;4.10;0.53;;;8.40;99.90;;;;;;5012691;28;20771;-84
2023/02/21 05:11:02;;;;;;;5.77;0.73;;;8.30;99.90;;;;;;5013082;28;20171;-84
2023/02/21 05:13:27;;;;;;;5.80;0.40;;;8.20;99.90;;;;;;5013054;28;20201;-86
2023/02/21 05:15:53;;;;;;;4.73;0.80;;;8.20;99.90;;;;;;5011845;28;20405;-84
2023/02/21 05:18:22;;;;;;;5.30;0.50;;;8.20;99.90;;;;;;5012816;28;20213;-84
2023/02/21 05:20:50;;;;;;;4.93;1.13;;;8.10;99.90;;;;;;5012924;28;20198;-85
2023/02/21 05:23:17;;;;;;;2.83;0.33;;;8.10;99.90;;;;;;5012838;28;20420;-85
2023/02/21 05:25:43;;;;;;;7.97;1.07;;;8.10;99.90;;;;;;5012529;28;20426;-84
2023/02/21 05:28:09;;;;;;;9.70;1.30;;;8.10;99.90;;;;;;5011669;28;20414;-85
2023/02/21 05:30:35;;;;;;;6.20;1.10;;;8.10;99.90;;;;;;5011564;28;20421;-84
2023/02/21 05:33:00;;;;;;;5.00;1.60;;;8.10;99.90;;;;;;5012599;28;20179;-84
2023/02/21 05:35:26;;;;;;;5.20;1.50;;;8.10;99.90;;;;;;5012843;28;20178;-85
2023/02/21 05:37:51;;;;;;;3.10;0.83;;;8.10;99.90;;;;;;5011392;28;20233;-85
2023/02/21 05:40:17;;;;;;;9.67;1.07;;;8.10;99.90;;;;;;5012427;28;20706;-84
2023/02/21 05:42:43;;;;;;;11.83;2.10;;;8.10;99.90;;;;;;5011466;28;20264;-85
2023/02/21 05:45:09;;;;;;;12.23;1.30;;;8.00;99.90;;;;;;5012486;28;20699;-84
2023/02/21 05:47:35;;;;;;;13.00;1.03;;;8.00;99.90;;;;;;5012651;28;20564;-84
2023/02/21 05:50:20;;;;;;;10.70;1.17;;;8.00;99.90;;;;;;5012695;28;20516;-84
2023/02/21 05:52:49;;;;;;;6.90;1.30;;;8.00;99.90;;;;;;5012440;28;20191;-85
2023/02/21 05:55:14;;;;;;;4.90;0.43;;;8.70;99.90;;;;;;4971838;28;20532;-84
2023/02/21 05:57:40;;;;;;;12.27;0.57;;;8.00;99.90;;;;;;5015817;28;20481;-84
2023/02/21 06:00:12;;;;;;;7.47;0.40;;;7.90;99.90;;;;;;5016039;28;20179;-84
2023/02/21 06:02:38;;;;;;;14.40;1.77;;;8.00;99.90;;;;;;5015956;28;20206;-84
2023/02/21 06:05:03;;;;;;;8.93;1.23;;;8.00;99.90;;;;;;5015979;28;20428;-84
2023/02/21 06:07:29;;;;;;;12.17;2.17;;;8.00;99.90;;;;;;5015835;28;20181;-85
2023/02/21 06:09:54;;;;;;;9.47;1.07;;;8.00;99.90;;;;;;5015506;28;20757;-85
2023/02/21 06:12:20;;;;;;;20.00;3.13;;;8.00;99.90;;;;;;5014627;28;20167;-83
2023/02/21 06:14:45;;;;;;;5.70;1.27;;;8.10;99.90;;;;;;5014398;28;20264;-83
2023/02/21 06:17:10;;;;;;;10.70;1.27;;;8.00;99.90;;;;;;5014352;28;20239;-84
2023/02/21 06:19:36;;;;;;;8.80;1.07;;;8.00;99.90;;;;;;5015458;28;20227;-84
2023/02/21 06:22:01;;;;;;;6.20;1.70;;;7.90;99.90;;;;;;5014646;28;20268;-84
2023/02/21 06:24:27;;;;;;;8.03;0.97;;;7.90;99.90;;;;;;5013625;28;20174;-84
2023/02/21 06:26:56;;;;;;;6.37;1.33;;;7.90;99.90;;;;;;5015350;28;20556;-87
2023/02/21 06:29:21;;;;;;;14.20;2.47;;;7.90;99.90;;;;;;5014094;28;20701;-83
2023/02/21 06:31:47;;;;;;;4.50;0.77;;;7.90;99.90;;;;;;5013056;28;20522;-83
2023/02/21 06:34:13;;;;;;;4.87;0.70;;;7.90;99.90;;;;;;5015377;28;20637;-83
2023/02/21 06:36:38;;;;;;;8.00;1.57;;;7.90;99.90;;;;;;5015308;28;20225;-82
2023/02/21 06:39:04;;;;;;;9.40;1.57;;;7.90;99.90;;;;;;5014945;28;20609;-85
2023/02/21 06:41:32;;;;;;;8.50;0.80;;;7.90;99.90;;;;;;5013999;28;20212;-84
2023/02/21 06:43:58;;;;;;;10.03;1.10;;;8.00;99.90;;;;;;5015108;28;20735;-86
2023/02/21 06:46:27;;;;;;;11.23;2.27;;;8.00;99.90;;;;;;5014622;28;20453;-84
2023/02/21 06:48:53;;;;;;;11.63;1.67;;;7.90;99.90;;;;;;5015120;28;20984;-85
2023/02/21 06:51:18;;;;;;;4.83;0.77;;;7.90;99.90;;;;;;5015189;28;20436;-83
2023/02/21 06:53:48;;;;;;;9.63;1.03;;;7.90;99.90;;;;;;5014679;28;20227;-85
2023/02/21 06:56:14;;;;;;;6.60;0.97;;;7.90;99.90;;;;;;4981242;28;20785;-83
2023/02/21 06:58:40;;;;;;;15.23;2.30;;;8.00;99.90;;;;;;5009311;28;20869;-86
2023/02/21 07:01:08;;;;;;;7.20;1.20;;;7.90;99.90;;;;;;5015093;28;20501;-85
2023/02/21 07:03:38;;;;;;;7.70;0.80;;;7.90;99.90;;;;;;5014426;28;20204;-84
2023/02/21 07:06:04;;;;;;;5.63;2.83;;;7.90;99.90;;;;;;5015148;28;20520;-86
2023/02/21 07:08:29;;;;;;;5.57;1.80;;;7.90;99.90;;;;;;5014497;28;20508;-84
2023/02/21 07:10:55;;;;;;;14.70;1.77;;;8.00;99.90;;;;;;5014786;28;20205;-84
2023/02/21 07:13:21;;;;;;;12.80;1.00;;;8.00;99.90;;;;;;5014838;28;20701;-83
2023/02/21 07:15:46;;;;;;;10.13;1.67;;;8.00;99.90;;;;;;5013482;28;20167;-87
2023/02/21 07:18:12;;;;;;;3.60;0.50;;;8.10;99.90;;;;;;5013434;28;20194;-84
2023/02/21 07:20:37;;;;;;;6.43;0.70;;;8.10;99.90;;;;;;5013308;28;20213;-83
2023/02/21 07:23:03;;;;;;;9.87;0.73;;;8.10;99.90;;;;;;5014504;28;20524;-83
2023/02/21 07:25:28;;;;;;;8.10;1.13;;;8.10;99.90;;;;;;5014071;28;20185;-83
2023/02/21 07:27:54;;;;;;;9.53;1.47;;;8.20;99.90;;;;;;5014434;28;20586;-86
2023/02/21 07:30:20;;;;;;;9.67;1.77;;;8.20;99.90;;;;;;5014419;28;20167;-83
2023/02/21 07:32:45;;;;;;;15.23;2.00;;;8.20;99.90;;;;;;5012878;28;20171;-82
2023/02/21 07:35:11;;;;;;;11.07;0.77;;;8.30;99.90;;;;;;5014246;28;20409;-82
2023/02/21 07:37:37;;;;;;;10.30;1.13;;;8.30;99.90;;;;;;5014167;28;20693;-82
2023/02/21 07:40:05;;;;;;;8.60;1.30;;;8.30;99.90;;;;;;5011691;28;20831;-82
2023/02/21 07:42:31;;;;;;;10.20;1.50;;;8.40;99.90;;;;;;5011491;28;20610;-82
2023/02/21 07:44:57;;;;;;;6.47;1.40;;;8.40;99.90;;;;;;5013494;28;20499;-82
2023/02/21 07:47:26;;;;;;;14.57;1.60;;;8.40;99.90;;;;;;5012769;28;20182;-84
2023/02/21 07:49:53;;;;;;;3.63;0.70;;;8.50;99.90;;;;;;5012796;28;20753;-84
2023/02/21 07:52:19;;;;;;;8.03;0.93;;;8.50;99.90;;;;;;5013902;28;20416;-84
2023/02/21 07:54:45;;;;;;;5.97;1.40;;;8.50;99.90;;;;;;5012294;28;20922;-84
2023/02/21 07:57:10;;;;;;;7.23;1.00;;;8.60;99.90;;;;;;5013818;28;20417;-84
2023/02/21 07:59:36;;;;;;;6.40;0.80;;;8.50;99.90;;;;;;5013702;28;20215;-85
2023/02/21 08:02:02;;;;;;;4.37;1.53;;;8.60;99.90;;;;;;5013583;28;20175;-83
2023/02/21 08:04:28;;;;;;;9.77;0.67;;;8.60;99.90;;;;;;5013753;28;20208;-82
2023/02/21 08:06:59;;;;;;;2.47;1.20;;;8.70;99.90;;;;;;5012362;28;20769;-83
2023/02/21 08:09:24;;;;;;;6.13;1.20;;;8.90;99.90;;;;;;5013326;28;20205;-83
2023/02/21 08:11:50;;;;;;;8.33;1.53;;;9.30;99.90;;;;;;4974094;28;20466;-82
2023/02/21 08:14:15;;;;;;;15.53;2.00;;;10.20;99.90;;;;;;5012332;28;20168;-83
2023/02/21 08:16:41;;;;;;;5.07;1.40;;;11.10;1.00;;;;;;5012401;28;20213;-82
2023/02/21 08:19:08;;;;;;;5.43;1.13;;;11.10;1.00;;;;;;5012644;28;20274;-83
2023/02/21 08:21:33;;;;;;;4.13;0.60;;;11.40;1.00;;;;;;5013454;28;20224;-83
2023/02/21 08:23:59;;;;;;;5.37;1.00;;;12.00;47.80;;;;;;5013053;28;20915;-83
2023/02/21 08:26:24;;;;;;;8.83;1.07;;;12.70;1.00;;;;;;5013533;28;20167;-83
2023/02/21 08:28:50;;;;;;;8.67;0.77;;;12.80;99.90;;;;;;5013457;28;20572;-83
2023/02/21 08:31:16;;;;;;;7.13;0.70;;;12.50;1.00;;;;;;5012273;28;20186;-83
2023/02/21 08:33:44;;;;;;;7.23;1.10;;;13.80;87.10;;;;;;5013530;28;20177;-83
2023/02/21 08:36:10;;;;;;;6.23;1.67;;;13.30;1.00;;;;;;5013300;28;20173;-82
2023/02/21 08:38:35;;;;;;;3.70;1.40;;;12.80;1.00;;;;;;5013013;28;20534;-84
2023/02/21 08:41:02;;;;;;;7.30;0.77;;;12.20;1.00;;;;;;5011908;28;20177;-83
2023/02/21 08:43:27;;;;;;;4.53;0.87;;;11.70;1.00;;;;;;5013385;28;20179;-84
2023/02/21 08:45:53;;;;;;;7.97;1.50;;;11.10;1.00;;;;;;5012654;28;20812;-84
2023/02/21 08:48:21;;;;;;;5.07;1.13;;;10.80;1.00;;;;;;5013082;28;20178;-83
2023/02/21 08:50:47;;;;;;;5.50;0.90;;;10.80;1.00;;;;;;5013252;28;20515;-83
2023/02/21 08:53:13;;;;;;;7.27;0.73;;;10.70;1.00;;;;;;5012953;28;20414;-81
2023/02/21 08:55:39;;;;;;;11.83;1.07;;;10.70;1.00;;;;;;5013252;28;20175;-82
2023/02/21 08:58:05;;;;;;;6.70;1.40;;;10.70;1.00;;;;;;5013103;28;20503;-81
2023/02/21 09:00:30;;;;;;;8.27;1.87;;;10.90;1.00;;;;;;5013140;28;20175;-81
2023/02/21 09:02:58;;;;;;;9.60;1.07;;;11.00;99.90;;;;;;5013122;28;20170;-81
2023/02/21 09:05:26;;;;;;;11.77;1.33;;;11.40;99.90;;;;;;5013065;28;20313;-81
2023/02/21 09:08:00;;;;;;;4.87;1.13;;;11.30;1.00;;;;;;5013084;28;20406;-82
2023/02/21 09:10:29;;;;;;;9.70;0.77;;;11.60;1.00;;;;;;4972688;28;20444;-81
2023/02/21 09:12:55;;;;;;;9.27;1.60;;;11.50;30.70;;;;;;5012890;28;20463;-82
2023/02/21 09:15:20;;;;;;;11.90;1.53;;;11.20;1.00;;;;;;5013059;28;20504;-82
2023/02/21 09:17:48;;;;;;;11.67;1.40;;;11.10;1.00;;;;;;5012971;28;20242;-82
2023/02/21 09:20:17;;;;;;;8.20;1.07;;;10.70;1.00;;;;;;5013057;28;20187;-82
2023/02/21 09:22:46;;;;;;;11.53;1.40;;;10.60;1.00;;;;;;5012451;28;20414;-82
2023/02/21 09:25:12;;;;;;;9.57;0.70;;;10.60;25.60;;;;;;5012575;28;20509;-83
2023/02/21 09:27:39;;;;;;;10.87;1.67;;;10.50;1.00;;;;;;5012895;28;20446;-81
2023/02/21 09:30:11;;;;;;;6.30;2.37;;;10.60;1.00;;;;;;5013902;28;20413;-82
2023/02/21 09:32:37;;;;;;;4.10;0.60;;;10.60;12.60;;;;;;5016621;28;20417;-83
2023/02/21 09:35:07;;;;;;;11.77;2.10;;;10.50;14.50;;;;;;5016527;28;20773;-83
2023/02/21 09:37:35;;;;;;;6.30;1.03;;;10.50;1.00;;;;;;5015108;28;20414;-83
2023/02/21 09:40:01;;;;;;;9.83;1.07;;;10.40;51.80;;;;;;5016162;28;20516;-83
2023/02/21 09:42:30;;;;;;;9.87;1.57;;;10.20;34.00;;;;;;5016403;28;20829;-82
2023/02/21 09:44:57;;;;;;;8.33;1.03;;;10.20;77.00;;;;;;5016073;28;20218;-83
2023/02/21 09:47:32;;;;;;;5.87;0.77;;;10.30;99.90;;;;;;5016429;28;20451;-81
2023/02/21 09:50:02;;;;;;;12.10;1.23;;;10.30;89.90;;;;;;5016163;28;20443;-82
2023/02/21 09:52:34;;;;;;;7.53;1.07;;;10.30;14.10;;;;;;5016128;28;20830;-81
2023/02/21 09:55:07;;;;;;;4.07;0.93;;;10.30;71.70;;;;;;5015800;28;20427;-81
2023/02/21 09:57:33;;;;;;;10.20;1.23;;;10.20;18.70;;;;;;5016074;28;20424;-81
2023/02/21 09:59:58;;;;;;;4.03;1.20;;;10.30;1.00;;;;;;5016081;28;20431;-82
2023/02/21 10:02:50;;;;;;;18.20;2.20;;;10.40;29.00;;;;;;5015979;28;20202;-81
2023/02/21 10:05:43;;;;;;;5.67;0.63;;;10.60;27.10;;;;;;5015788;28;20203;-81
2023/02/21 10:08:09;;;;;;;5.43;1.57;;;10.60;1.00;;;;;;5014340;28;20424;-81
2023/02/21 10:10:48;;;;;;;8.50;0.83;;;10.50;1.00;;;;;;4972836;28;20433;-81
2023/02/21 10:13:28;;;;;;;8.63;0.77;;;10.60;1.00;;;;;;5015842;28;20216;-81
2023/02/21 10:16:20;;;;;;;5.27;2.60;;;10.80;1.00;;;;;;5015834;28;20777;-82
2023/02/21 10:19:08;;;;;;;7.83;1.27;;;10.90;1.00;;;;;;5015645;28;20475;-80
2023/02/21 10:21:39;;;;;;;12.77;2.23;;;10.90;1.00;;;;;;5015736;28;20409;-82
2023/02/21 10:24:26;;;;;;;8.63;1.53;;;10.80;1.00;;;;;;5015374;28;20422;-82
2023/02/21 10:27:04;;;;;;;5.87;1.20;;;10.80;1.00;;;;;;5078976;23;20472;-81
2023/02/21 10:29:49;;;;;;;8.40;0.90;;;10.90;99.90;;;;;;5010159;28;20429;-83
2023/02/21 10:32:15;;;;;;;9.30;0.70;;;11.10;1.00;;;;;;5004157;28;20416;-83
2023/02/21 10:34:42;;;;;;;5.80;1.93;;;11.00;1.00;;;;;;5003797;28;20774;-83
2023/02/21 10:37:37;;;;;;;9.97;1.70;;;11.10;1.00;;;;;;5003678;28;20179;-83
2023/02/21 10:40:17;;;;;;;6.27;1.00;;;11.40;99.90;;;;;;5004405;28;20904;-83
2023/02/21 10:42:50;;;;;;;8.10;1.83;;;11.50;1.00;;;;;;5003036;28;20524;-86
2023/02/21 10:45:17;;;;;;;15.33;1.20;;;11.90;99.90;;;;;;4996680;28;20415;-84
2023/02/21 10:48:01;;;;;;;11.97;1.10;;;12.20;1.00;;;;;;4994716;28;20419;-88
2023/02/21 10:50:59;;;;;;;7.67;0.90;;;12.70;1.00;;;;;;4993565;28;20949;-84
2023/02/21 10:53:28;;;;;;;7.13;1.30;;;13.00;1.00;;;;;;4993513;28;20437;-86
2023/02/21 10:56:19;;;;;;;4.53;0.73;;;13.50;99.90;;;;;;4994283;28;20985;-86
2023/02/21 10:58:51;;;;;;;4.87;1.50;;;13.20;1.00;;;;;;4994382;28;20856;-84
2023/02/21 11:01:20;;;;;;;7.60;1.00;;;13.20;99.90;;;;;;4993213;28;20447;-88
2023/02/21 11:03:49;;;;;;;8.77;0.50;;;13.00;1.00;;;;;;4994364;28;20819;-79
2023/02/21 11:06:32;;;;;;;7.23;1.60;;;13.00;54.50;;;;;;4994731;28;20425;-79
2023/02/21 11:08:58;;;;;;;8.03;1.67;;;13.70;1.00;;;;;;4994860;28;20455;-79
2023/02/21 11:11:34;;;;;;;4.23;1.27;;;14.20;1.00;;;;;;5003431;28;20793;-78
2023/02/21 11:14:23;;;;;;;9.60;1.30;;;14.00;1.00;;;;;;5011255;28;20503;-78
2023/02/21 11:17:06;;;;;;;6.30;1.10;;;14.60;1.00;;;;;;5013264;28;20428;-78
2023/02/21 11:19:47;;;;;;;9.23;1.57;;;15.50;99.90;;;;;;5001649;28;20466;-78
2023/02/21 11:22:15;;;;;;;7.20;1.67;;;15.70;99.90;;;;;;5006924;28;20417;-90
2023/02/21 11:24:59;;;;;;;7.27;1.37;;;15.10;99.90;;;;;;5000773;28;20429;-88
2023/02/21 11:27:28;;;;;;;6.07;0.93;;;14.90;99.90;;;;;;4994744;28;20458;-80
2023/02/21 11:29:54;;;;;;;6.30;1.40;;;15.00;99.90;;;;;;4999878;28;20424;-83
2023/02/21 11:32:28;;;;;;;2.93;0.50;;;14.80;99.90;;;;;;5000902;28;20462;-85
2023/02/21 11:35:12;;;;;;;5.93;0.80;;;14.10;99.90;;;;;;5013803;28;20774;-88
2023/02/21 11:37:48;;;;;;;6.43;1.70;;;13.50;1.00;;;;;;5012813;28;20412;-85
2023/02/21 11:40:49;;;;;;;8.17;1.03;;;13.20;44.30;;;;;;5013122;28;20456;-83
2023/02/21 11:43:25;;;;;;;5.90;0.50;;;13.00;99.90;;;;;;5007343;28;20837;-84
2023/02/21 11:46:11;;;;;;;4.50;0.63;;;12.70;1.00;;;;;;5000800;28;20842;-85
2023/02/21 11:49:00;;;;;;;7.63;0.63;;;12.30;99.90;;;;;;5006525;28;20947;-84
2023/02/21 11:51:57;;;;;;;4.90;1.07;;;12.40;1.00;;;;;;5012953;28;20413;-82
2023/02/21 11:54:26;;;;;;;2.73;0.47;;;12.40;1.00;;;;;;5011485;28;20440;-84
2023/02/21 11:57:10;;;;;;;9.60;1.37;;;12.10;1.00;;;;;;5008589;28;20421;-87
2023/02/21 11:59:51;;;;;;;3.80;0.67;;;12.10;30.60;;;;;;5012246;28;20851;-85
2023/02/21 12:02:49;;;;;;;12.33;1.30;;;12.20;99.90;;;;;;5011588;28;20419;-86
2023/02/21 12:05:48;;;;;;;4.07;1.30;;;12.00;1.00;;;;;;5014336;28;20428;-93
2023/02/21 12:08:38;;;;;;;8.20;0.90;;;11.70;99.90;;;;;;5013814;28;20426;-90
2023/02/21 12:11:51;;;;;;;2.40;0.47;;;11.60;1.00;;;;;;5013716;28;20469;-90
2023/02/21 12:14:39;;;;;;;6.47;0.70;;;11.70;1.00;;;;;;5010187;28;20429;-90
2023/02/21 12:17:37;;;;;;;5.53;0.20;;;11.40;1.00;;;;;;5012892;28;20810;-84
2023/02/21 12:20:22;;;;;;;4.40;0.90;;;11.40;1.00;;;;;;5013252;28;20470;-91
2023/02/21 12:23:07;;;;;;;8.37;1.40;;;11.40;1.00;;;;;;5013316;28;20414;-83
2023/02/21 12:25:57;;;;;;;2.67;0.83;;;11.20;1.00;;;;;;5011730;28;20465;-91
2023/02/21 12:28:44;;;;;;;1.90;1.37;;;11.10;99.90;;;;;;5013184;28;20436;-84
2023/02/21 12:31:27;;;;;;;6.53;0.93;;;11.00;99.90;;;;;;5012218;28;20413;-92
2023/02/21 12:34:27;;;;;;;3.57;0.87;;;11.10;99.90;;;;;;5014027;28;20479;-90
2023/02/21 12:37:30;;;;;;;3.07;0.83;;;10.90;99.90;;;;;;5013955;28;20416;-84
2023/02/21 12:40:17;;;;;;;4.63;1.37;;;10.90;99.90;;;;;;5012468;28;20463;-84
2023/02/21 12:43:20;;;;;;;1.93;1.20;;;10.70;99.90;;;;;;5012666;28;20421;-89
2023/02/21 12:46:03;;;;;;;1.30;0.37;;;10.80;99.90;;;;;;5012398;28;20525;-85
2023/02/21 12:48:40;;;;;;;6.33;0.80;;;11.00;99.90;;;;;;5013425;28;20781;-92
2023/02/21 12:51:10;;;;;;;4.03;1.17;;;11.10;99.90;;;;;;5012876;28;20413;-83
2023/02/21 12:53:53;;;;;;;3.77;0.77;;;11.20;99.90;;;;;;5012436;28;20859;-84
2023/02/21 12:56:55;;;;;;;1.43;0.30;;;11.10;99.90;;;;;;5011569;28;20418;-89
2023/02/21 12:59:38;;;;;;;3.13;0.63;;;11.20;99.90;;;;;;5013217;28;20472;-88
2023/02/21 13:02:28;;;;;;;2.23;1.00;;;11.20;99.90;;;;;;5014056;28;20412;-89
2023/02/21 13:05:15;;;;;;;2.20;0.30;;;11.20;99.90;;;;;;5013386;28;20428;-83
2023/02/21 13:07:54;;;;;;;4.63;0.40;;;11.20;99.90;;;;;;5013491;28;20411;-86
2023/02/21 13:10:33;;;;;;;3.40;0.53;;;11.10;99.90;;;;;;4986408;28;20445;-83
2023/02/21 13:13:12;;;;;;;1.90;0.70;;;11.10;99.90;;;;;;5004816;28;20500;-87
2023/02/21 13:15:41;;;;;;;0.57;0.30;;;10.90;99.90;;;;;;5006051;28;20504;-86
2023/02/21 13:18:15;;;;;;;3.37;0.30;;;10.80;99.90;;;;;;5007381;28;20464;-88
2023/02/21 13:20:45;;;;;;;1.70;0.33;;;10.90;99.90;;;;;;5007144;28;20479;-88
2023/02/21 13:23:12;;;;;;;2.00;0.20;;;10.90;99.90;;;;;;5010738;28;20998;-82
2023/02/21 13:25:57;;;;;;;6.00;1.03;;;11.00;99.90;;;;;;5014286;28;20457;-85
2023/02/21 13:28:27;;;;;;;6.97;0.70;;;11.00;99.90;;;;;;5015914;28;20779;-87
2023/02/21 13:31:04;;;;;;;5.60;0.57;;;11.20;60.80;;;;;;5015000;28;20997;-89
2023/02/21 13:33:44;;;;;;;4.73;0.63;;;11.30;1.00;;;;;;5014414;28;20948;-86
2023/02/21 13:36:43;;;;;;;1.50;0.30;;;11.50;1.00;;;;;;5015655;28;20413;-83
2023/02/21 13:39:13;;;;;;;7.37;1.60;;;11.40;1.00;;;;;;5013690;28;20473;-84
2023/02/21 13:41:51;;;;;;;3.80;0.40;;;11.10;59.50;;;;;;5015422;28;20406;-83
2023/02/21 13:44:35;;;;;;;1.93;0.30;;;11.10;59.90;;;;;;5015348;28;20413;-84
2023/02/21 13:47:21;;;;;;;4.07;0.50;;;11.20;56.30;;;;;;5016104;28;20497;-85
2023/02/21 13:49:55;;;;;;;2.70;0.37;;;11.20;61.40;;;;;;5016235;28;20500;-84
2023/02/21 13:52:30;;;;;;;6.50;0.30;;;11.20;40.50;;;;;;5015815;28;20421;-88
2023/02/21 13:55:11;;;;;;;2.50;0.33;;;11.10;22.50;;;;;;5013258;28;20422;-82
2023/02/21 13:57:43;;;;;;;6.40;2.00;;;10.90;74.10;;;;;;4996526;28;20421;-81
2023/02/21 14:00:23;;;;;;;4.00;0.60;;;11.00;99.90;;;;;;5013880;28;20422;-80
2023/02/21 14:03:11;;;;;;;2.30;0.33;;;10.90;99.90;;;;;;4998917;28;20422;-86
2023/02/21 14:05:46;;;;;;;4.60;0.30;;;11.00;99.90;;;;;;4995143;28;20427;-80
2023/02/21 14:08:46;;;;;;;2.23;0.43;;;10.90;99.90;;;;;;4996135;28;20473;-80
2023/02/21 14:11:17;;;;;;;6.17;0.60;;;11.00;99.90;;;;;;4986606;28;20549;-79
2023/02/21 14:14:11;;;;;;;4.50;0.60;;;10.80;99.90;;;;;;5015601;28;20504;-79
2023/02/21 14:16:57;;;;;;;5.47;0.40;;;10.70;99.90;;;;;;5013407;28;20463;-88
2023/02/21 14:19:30;;;;;;;3.83;0.53;;;10.80;99.90;;;;;;5016119;28;20468;-79
2023/02/21 14:22:04;;;;;;;2.43;0.43;;;10.80;99.90;;;;;;5016049;28;20907;-79
2023/02/21 14:24:33;;;;;;;3.23;0.30;;;11.00;99.90;;;;;;5015973;28;20430;-89
2023/02/21 14:27:24;;;;;;;4.10;0.40;;;11.20;94.30;;;;;;5015711;28;20465;-82
2023/02/21 14:30:11;;;;;;;2.37;0.27;;;11.00;1.00;;;;;;5011690;28;20456;-81
2023/02/21 14:32:40;;;;;;;1.73;0.33;;;10.90;19.00;;;;;;5015808;28;20474;-89
2023/02/21 14:35:15;;;;;;;2.03;0.20;;;10.80;49.50;;;;;;5015696;28;20492;-89
2023/02/21 14:38:03;;;;;;;1.63;0.30;;;10.90;59.20;;;;;;5013837;28;20953;-79
2023/02/21 14:40:31;;;;;;;4.43;0.30;;;11.10;40.70;;;;;;5015819;28;20457;-79
2023/02/21 14:43:22;;;;;;;5.30;0.33;;;11.00;30.00;;;;;;5015562;28;20412;-87
2023/02/21 14:46:15;;;;;;;5.20;0.40;;;10.90;99.90;;;;;;5015363;28;20425;-79
2023/02/21 14:48:57;;;;;;;1.83;0.30;;;10.80;99.90;;;;;;5015526;28;20429;-89
2023/02/21 14:51:42;;;;;;;1.90;0.20;;;10.70;99.90;;;;;;5015469;28;20430;-89
2023/02/21 14:54:28;;;;;;;3.63;0.60;;;10.60;99.90;;;;;;5015122;28;20504;-88
2023/02/21 14:57:26;;;;;;;2.00;0.30;;;10.60;99.90;;;;;;5004221;28;20509;-79
2023/02/21 15:00:17;;;;;;;3.80;0.30;;;10.60;99.90;;;;;;5015528;28;20616;-85
2023/02/21 15:03:05;;;;;;;3.57;0.63;;;10.50;99.90;;;;;;5015248;28;20419;-86
2023/02/21 15:05:50;;;;;;;5.00;0.40;;;10.50;99.90;;;;;;5015152;28;20910;-82
2023/02/21 15:08:24;;;;;;;1.10;0.30;;;10.40;99.90;;;;;;5014915;28;20798;-90
2023/02/21 15:10:59;;;;;;;5.93;0.50;;;10.40;99.90;;;;;;5013776;28;20505;-80
2023/02/21 15:13:26;;;;;;;0.87;0.30;;;10.30;99.90;;;;;;5013863;28;20435;-88
2023/02/21 15:16:13;;;;;;;1.60;0.30;;;10.30;99.90;;;;;;5014948;28;20479;-89
2023/02/21 15:18:41;;;;;;;2.00;0.20;;;10.20;99.90;;;;;;5014881;28;20467;-80
2023/02/21 15:21:17;;;;;;;3.67;0.60;;;10.10;99.90;;;;;;5015027;28;20915;-79
2023/02/21 15:23:45;;;;;;;1.70;0.30;;;10.10;99.90;;;;;;5014507;28;20424;-87
2023/02/21 15:26:26;;;;;;;1.53;0.47;;;10.00;99.90;;;;;;5014658;28;20479;-89
2023/02/21 15:29:11;;;;;;;3.27;0.30;;;9.90;99.90;;;;;;5014749;28;20466;-79
2023/02/21 15:31:58;;;;;;;3.33;0.83;;;9.90;99.90;;;;;;5014456;28;20503;-78
2023/02/21 15:34:28;;;;;;;2.13;0.30;;;9.90;99.90;;;;;;5014536;28;20409;-79
2023/02/21 15:37:34;;;;;;;0.73;0.20;;;9.80;99.90;;;;;;5014457;28;20430;-89
2023/02/21 15:40:10;;;;;;;7.33;0.60;;;9.80;99.90;;;;;;4999768;28;20487;-89
2023/02/21 15:42:38;;;;;;;3.80;1.23;;;9.80;99.90;;;;;;4996809;28;20433;-83